Chamberlain, South Dakota
Current Conditions -  °F | °C
As of 7:35 PM on Monday 24 Nov 2014 (Local Time) from K9V9 Reporting Station
Clear Clear  
Wind Chill: 12°   Ceiling: Unl
Heat Index: 23°   Visibility: 10mi
Dew Point:   Wind: 10mph
Humidity: 52%   Direction: 320°NW
Pressure: 30.05"   Gusts: NA
Location:  43.79°N, 99.31°W
Report Text: K9V9 250135Z AUTO 32009KT 10SM CLR M05/M14 A3005 RMK AO2 T10521136
Loading
Personal Weather Stations






























Interactive Weather Map New forecast layout! Learn more

10-Day Weather Forecast

Advertisements
Track Severe Weather on mobile